Time;durP1;ratioP1;P1;durP2;ratioP2;P2;SDS_P1;SDS_P2;PMS_P1;PMS_P2;Temp;Humidity;BMP_temperature;BMP_pressure;BME280_temperature;BME280_humidity;BME280_pressure;Samples;Min_cycle;Max_cycle;Signal;HPM_P1;HPM_P2
2021/12/07 00:02:09;;;;;;;9.27;3.03;;;3.30;99.90;;;;;;5069797;28;20032;-72
2021/12/07 00:04:36;;;;;;;11.80;3.33;;;3.30;99.90;;;;;;5070320;28;20040;-72
2021/12/07 00:07:03;;;;;;;10.43;2.72;;;3.20;99.90;;;;;;5069973;28;20024;-72
2021/12/07 00:09:29;;;;;;;10.52;2.97;;;3.20;99.90;;;;;;5069988;28;20398;-72
2021/12/07 00:11:56;;;;;;;10.95;2.85;;;3.20;99.90;;;;;;5071058;28;20029;-73
2021/12/07 00:14:24;;;;;;;10.35;3.03;;;3.20;99.90;;;;;;5070199;28;20029;-74
2021/12/07 00:16:54;;;;;;;7.60;2.67;;;3.20;99.90;;;;;;5070707;28;20021;-73
2021/12/07 00:19:21;;;;;;;12.60;3.05;;;3.10;99.90;;;;;;5070712;28;20028;-73
2021/12/07 00:21:48;;;;;;;7.63;2.80;;;3.10;99.90;;;;;;5070346;28;20025;-74
2021/12/07 00:24:14;;;;;;;10.50;3.97;;;3.10;99.90;;;;;;5076036;28;20031;-73
2021/12/07 00:26:42;;;;;;;9.63;3.03;;;3.10;99.90;;;;;;5070444;28;20063;-73
2021/12/07 00:29:09;;;;;;;7.38;2.90;;;3.10;99.90;;;;;;5071523;28;20029;-72
2021/12/07 00:31:41;;;;;;;8.35;2.92;;;3.20;99.90;;;;;;5069953;28;20024;-72
2021/12/07 00:34:17;;;;;;;9.43;2.70;;;3.10;99.90;;;;;;5070229;28;20414;-72
2021/12/07 00:36:46;;;;;;;11.15;2.95;;;3.20;99.90;;;;;;5070476;28;20379;-72
2021/12/07 00:39:18;;;;;;;8.05;2.55;;;3.20;99.90;;;;;;5071014;28;20075;-72
2021/12/07 00:41:44;;;;;;;10.43;2.75;;;3.20;99.90;;;;;;5070452;28;20028;-72
2021/12/07 00:44:10;;;;;;;12.75;3.03;;;3.20;99.90;;;;;;5071467;28;20040;-72
2021/12/07 00:46:36;;;;;;;11.93;2.92;;;3.20;99.90;;;;;;5073916;28;20026;-72
2021/12/07 00:49:04;;;;;;;8.55;2.63;;;3.10;99.90;;;;;;5074459;28;20017;-72
2021/12/07 00:51:30;;;;;;;7.95;2.65;;;3.10;99.90;;;;;;5073911;28;20025;-73
2021/12/07 00:53:56;;;;;;;11.23;2.70;;;3.20;99.90;;;;;;5074726;28;20478;-72
2021/12/07 00:56:22;;;;;;;10.20;2.88;;;3.20;99.90;;;;;;5074286;28;20052;-72
2021/12/07 00:58:49;;;;;;;8.00;2.28;;;3.20;99.90;;;;;;5073839;28;20051;-73
2021/12/07 01:01:17;;;;;;;13.63;2.58;;;3.30;99.90;;;;;;5074021;28;20472;-73
2021/12/07 01:03:43;;;;;;;10.90;2.85;;;3.30;99.90;;;;;;5073867;28;20024;-73
2021/12/07 01:24:57;;;;;;;8.45;2.45;;;3.30;99.90;;;;;;5074081;28;20035;-73
2021/12/07 01:27:23;;;;;;;11.57;2.40;;;3.30;99.90;;;;;;5074008;28;20486;-73
2021/12/07 01:30:01;;;;;;;8.50;2.13;;;3.30;99.90;;;;;;5073305;28;20836;-73
2021/12/07 01:42:55;;;;;;;8.88;2.08;;;3.50;99.90;;;;;;5073069;28;20056;-73
2021/12/07 01:45:51;;;;;;;9.70;2.47;;;3.50;99.90;;;;;;5075228;28;20494;-73
2021/12/07 02:01:53;;;;;;;9.80;2.10;;;3.50;99.90;;;;;;5010524;28;20041;-73
2021/12/07 02:04:18;;;;;;;11.90;1.77;;;3.50;99.90;;;;;;5011330;28;20057;-73
2021/12/07 02:06:45;;;;;;;8.32;2.22;;;3.50;99.90;;;;;;5010444;28;20449;-73
2021/12/07 02:09:12;;;;;;;15.88;2.42;;;3.60;99.90;;;;;;5011263;28;20033;-73
2021/12/07 02:11:46;;;;;;;9.07;2.45;;;3.60;99.90;;;;;;5010289;28;20034;-72
2021/12/07 02:14:16;;;;;;;9.27;1.70;;;3.60;99.90;;;;;;5011018;28;20392;-72
2021/12/07 02:16:44;;;;;;;11.98;2.38;;;3.70;99.90;;;;;;5010222;28;20040;-72
2021/12/07 02:19:10;;;;;;;8.50;2.17;;;3.80;99.90;;;;;;5011145;28;20464;-72
2021/12/07 02:21:35;;;;;;;10.23;2.25;;;4.00;99.90;;;;;;5010552;28;20042;-72
2021/12/07 02:24:01;;;;;;;14.43;1.98;;;4.20;99.90;;;;;;5032759;28;20114;-72
2021/12/07 02:26:27;;;;;;;14.50;2.78;;;4.30;99.90;;;;;;5072742;28;20108;-72
2021/12/07 02:28:53;;;;;;;9.07;2.33;;;4.40;99.90;;;;;;5071907;28;20576;-72
2021/12/07 02:31:20;;;;;;;6.90;1.98;;;4.40;99.90;;;;;;5072621;28;20020;-72
2021/12/07 02:33:46;;;;;;;10.75;2.28;;;4.40;99.90;;;;;;5071786;28;20103;-72
2021/12/07 02:36:11;;;;;;;9.32;1.75;;;4.40;99.90;;;;;;5072552;28;20124;-72
2021/12/07 02:38:38;;;;;;;12.30;2.47;;;4.30;99.90;;;;;;5070637;28;20055;-73
2021/12/07 02:41:05;;;;;;;10.85;2.20;;;4.30;99.90;;;;;;5072480;28;20493;-72
2021/12/07 02:43:30;;;;;;;5.68;1.65;;;4.30;99.90;;;;;;5072330;28;20086;-72
2021/12/07 02:45:56;;;;;;;8.07;1.67;;;4.20;99.90;;;;;;5072592;28;20454;-72
2021/12/07 02:48:23;;;;;;;7.28;1.63;;;4.20;99.90;;;;;;5072280;28;20447;-72
2021/12/07 02:50:50;;;;;;;9.45;1.65;;;4.20;99.90;;;;;;5071749;28;20078;-72
2021/12/07 02:53:18;;;;;;;8.60;1.67;;;4.30;99.90;;;;;;5072081;28;20483;-71
2021/12/07 02:55:44;;;;;;;5.95;1.38;;;4.30;99.90;;;;;;5071300;28;20029;-72
2021/12/07 02:58:10;;;;;;;10.73;2.42;;;4.30;99.90;;;;;;5072365;28;20031;-72
2021/12/07 03:00:44;;;;;;;11.73;2.33;;;4.30;99.90;;;;;;5071539;28;20082;-74
2021/12/07 03:03:12;;;;;;;5.57;1.63;;;4.30;99.90;;;;;;5072355;28;20017;-72
2021/12/07 03:27:57;;;;;;;14.02;2.40;;;4.50;99.90;;;;;;5071345;28;20036;-72
2021/12/07 03:30:24;;;;;;;13.93;1.52;;;4.70;99.90;;;;;;5071818;28;20029;-73
2021/12/07 03:32:50;;;;;;;11.43;1.77;;;4.80;99.90;;;;;;5071455;28;20052;-73
2021/12/07 03:35:16;;;;;;;10.55;1.90;;;4.80;99.90;;;;;;5072797;28;20028;-73
2021/12/07 03:37:42;;;;;;;10.35;2.28;;;4.90;99.90;;;;;;5071215;28;20029;-72
2021/12/07 03:40:10;;;;;;;12.63;2.38;;;4.90;99.90;;;;;;5071796;28;20380;-73
2021/12/07 03:42:36;;;;;;;9.50;2.13;;;5.00;99.90;;;;;;5071484;28;20033;-74
2021/12/07 03:45:05;;;;;;;11.05;2.22;;;5.00;99.90;;;;;;5070086;28;20394;-72
2021/12/07 03:47:31;;;;;;;5.43;1.83;;;5.00;99.90;;;;;;5071543;28;20060;-72
2021/12/07 03:49:57;;;;;;;6.30;1.73;;;5.00;99.90;;;;;;5070999;28;20087;-74
2021/12/07 03:52:23;;;;;;;10.80;2.05;;;5.00;99.90;;;;;;5071743;28;20025;-72
2021/12/07 03:54:48;;;;;;;13.18;2.03;;;5.10;99.90;;;;;;5070924;28;20036;-72
2021/12/07 03:57:14;;;;;;;10.15;1.90;;;5.10;99.90;;;;;;5071806;28;20479;-72
2021/12/07 03:59:40;;;;;;;8.80;1.55;;;5.20;99.90;;;;;;5070877;28;20035;-74
2021/12/07 04:02:07;;;;;;;10.52;2.08;;;5.20;99.90;;;;;;5071870;28;20035;-72
2021/12/07 04:04:38;;;;;;;10.20;1.90;;;5.30;99.90;;;;;;5071444;28;20028;-72
2021/12/07 04:07:04;;;;;;;10.93;1.60;;;5.40;99.90;;;;;;5071210;28;20463;-74
2021/12/07 04:09:31;;;;;;;15.38;1.63;;;5.40;99.90;;;;;;5066019;28;20047;-74
2021/12/07 04:11:57;;;;;;;11.48;1.70;;;5.40;99.90;;;;;;5071724;28;20459;-73
2021/12/07 04:14:23;;;;;;;10.38;1.77;;;5.50;99.90;;;;;;5072177;28;20048;-73
2021/12/07 04:16:49;;;;;;;12.43;2.08;;;5.50;99.90;;;;;;5070655;28;20110;-73
2021/12/07 04:19:15;;;;;;;9.90;1.13;;;5.50;99.90;;;;;;5072028;28;20394;-73
2021/12/07 04:21:40;;;;;;;9.82;2.25;;;5.60;99.90;;;;;;5075211;28;20031;-76
2021/12/07 04:24:06;;;;;;;10.00;2.30;;;5.50;99.90;;;;;;5075126;28;20028;-73
2021/12/07 04:26:32;;;;;;;15.07;2.10;;;5.50;99.90;;;;;;5075647;28;20407;-72
2021/12/07 04:28:58;;;;;;;7.95;1.40;;;5.50;99.90;;;;;;5074424;28;20765;-73
2021/12/07 04:31:24;;;;;;;4.93;1.30;;;5.50;99.90;;;;;;5075188;28;20090;-73
2021/12/07 04:33:50;;;;;;;5.28;1.90;;;5.50;99.90;;;;;;5074315;28;20471;-72
2021/12/07 04:36:16;;;;;;;9.63;1.70;;;5.50;99.90;;;;;;5074802;28;20083;-72
2021/12/07 04:38:42;;;;;;;10.57;1.98;;;5.50;99.90;;;;;;5074609;28;20029;-74
2021/12/07 04:41:08;;;;;;;6.13;1.67;;;5.50;99.90;;;;;;5074832;28;20493;-72
2021/12/07 04:43:36;;;;;;;10.75;1.70;;;5.50;99.90;;;;;;5075044;28;20074;-72
2021/12/07 04:46:15;;;;;;;8.90;1.98;;;5.50;99.90;;;;;;5074090;28;20040;-72
2021/12/07 04:59:32;;;;;;;7.55;1.60;;;5.20;99.90;;;;;;5074724;28;20162;-72
2021/12/07 05:01:58;;;;;;;7.35;1.33;;;5.20;99.90;;;;;;5074198;28;20067;-72
2021/12/07 05:04:28;;;;;;;7.60;1.50;;;5.10;99.90;;;;;;5074392;28;20028;-72
2021/12/07 05:07:01;;;;;;;5.50;1.30;;;5.10;99.90;;;;;;5072572;28;20107;-72
2021/12/07 05:09:42;;;;;;;7.78;1.17;;;5.10;99.90;;;;;;5074622;28;20035;-72
2021/12/07 05:14:38;;;;;;;7.43;1.40;;;5.10;99.90;;;;;;5074414;28;20064;-72
2021/12/07 05:38:49;;;;;;;3.78;1.13;;;5.10;99.90;;;;;;5072990;28;20038;-73
2021/12/07 05:41:15;;;;;;;3.17;0.80;;;5.10;99.90;;;;;;5073990;28;20103;-72
2021/12/07 05:43:40;;;;;;;8.20;0.80;;;5.10;99.90;;;;;;5073683;28;20029;-73
2021/12/07 05:46:07;;;;;;;6.63;1.00;;;5.10;99.90;;;;;;5071642;28;20469;-73
2021/12/07 05:48:32;;;;;;;3.08;1.30;;;5.10;99.90;;;;;;5073390;28;20031;-74
2021/12/07 05:50:59;;;;;;;4.05;1.08;;;5.00;99.90;;;;;;5071777;28;20029;-74
2021/12/07 05:53:25;;;;;;;8.32;1.52;;;5.10;99.90;;;;;;5073534;28;20123;-73
2021/12/07 05:55:50;;;;;;;6.57;1.10;;;5.10;99.90;;;;;;5072579;28;20028;-74
2021/12/07 05:58:19;;;;;;;8.27;1.58;;;5.10;99.90;;;;;;5073390;28;20028;-75
2021/12/07 06:00:46;;;;;;;7.32;1.23;;;5.10;99.90;;;;;;5073387;28;20036;-75
2021/12/07 06:03:12;;;;;;;13.07;1.70;;;5.20;99.90;;;;;;5073040;28;20025;-73
2021/12/07 06:05:40;;;;;;;8.50;1.60;;;5.20;99.90;;;;;;5072811;28;20064;-72
2021/12/07 06:08:07;;;;;;;13.50;1.70;;;5.30;99.90;;;;;;5054912;28;20232;-75
2021/12/07 06:10:34;;;;;;;8.73;1.58;;;5.30;99.90;;;;;;5077804;28;20029;-73
2021/12/07 06:13:00;;;;;;;11.40;1.52;;;5.30;99.90;;;;;;5072696;28;20056;-73
2021/12/07 06:15:31;;;;;;;11.60;1.08;;;5.40;99.90;;;;;;5073356;28;20060;-74
2021/12/07 06:17:57;;;;;;;7.95;1.20;;;5.40;99.90;;;;;;5072325;28;20033;-73
2021/12/07 06:20:22;;;;;;;5.50;1.25;;;5.50;99.90;;;;;;5073097;28;20028;-73
2021/12/07 06:22:48;;;;;;;11.63;1.42;;;5.60;99.90;;;;;;5072661;28;20375;-75
2021/12/07 06:25:14;;;;;;;12.07;1.60;;;5.60;99.90;;;;;;5072862;28;20024;-73
2021/12/07 06:27:41;;;;;;;8.75;1.35;;;5.60;99.90;;;;;;5072965;28;20028;-73
2021/12/07 06:30:08;;;;;;;4.63;1.20;;;5.60;99.90;;;;;;5070735;28;20052;-74
2021/12/07 06:32:34;;;;;;;12.65;1.75;;;5.70;99.90;;;;;;5073231;28;20029;-74
2021/12/07 06:35:00;;;;;;;9.73;1.35;;;5.70;99.90;;;;;;5070700;28;20035;-74
2021/12/07 06:37:26;;;;;;;10.10;1.63;;;5.80;99.90;;;;;;5072311;28;20039;-74
2021/12/07 06:39:52;;;;;;;7.32;1.45;;;5.80;99.90;;;;;;5071990;28;20025;-75
2021/12/07 06:42:18;;;;;;;10.40;1.77;;;5.80;99.90;;;;;;5072068;28;20059;-73
2021/12/07 06:44:43;;;;;;;14.00;1.88;;;5.90;99.90;;;;;;5072412;28;20028;-74
2021/12/07 06:47:09;;;;;;;14.93;1.92;;;5.80;99.90;;;;;;5071867;28;20012;-73
2021/12/07 06:49:35;;;;;;;10.95;2.15;;;5.80;99.90;;;;;;5072226;28;20462;-73
2021/12/07 06:52:03;;;;;;;14.13;2.10;;;5.90;99.90;;;;;;5070092;28;20055;-74
2021/12/07 06:54:29;;;;;;;15.52;3.08;;;6.00;99.90;;;;;;5072340;28;20190;-74
2021/12/07 06:56:55;;;;;;;16.58;2.50;;;6.00;99.90;;;;;;5069051;28;20120;-75
2021/12/07 06:59:20;;;;;;;18.85;2.63;;;6.00;99.90;;;;;;5072228;28;20104;-74
2021/12/07 07:01:47;;;;;;;15.48;1.90;;;6.10;99.90;;;;;;5072711;28;20115;-74
2021/12/07 07:04:14;;;;;;;18.50;2.15;;;6.10;99.90;;;;;;5071481;28;20032;-75
2021/12/07 07:06:43;;;;;;;13.00;2.67;;;6.10;99.90;;;;;;5071871;28;20024;-74
2021/12/07 07:09:10;;;;;;;11.80;2.30;;;6.10;99.90;;;;;;5071405;28;20127;-75
2021/12/07 07:11:37;;;;;;;12.25;2.45;;;6.10;99.90;;;;;;5071857;28;20039;-74
2021/12/07 07:14:03;;;;;;;11.95;2.22;;;6.10;99.90;;;;;;5071802;28;20033;-75
2021/12/07 07:16:29;;;;;;;14.40;2.42;;;6.10;99.90;;;;;;5070747;28;20029;-74
2021/12/07 07:18:56;;;;;;;15.57;2.67;;;6.20;99.90;;;;;;5071203;28;20028;-74
2021/12/07 07:21:22;;;;;;;16.35;2.95;;;6.20;99.90;;;;;;5071864;28;20029;-73
2021/12/07 07:23:49;;;;;;;19.40;3.80;;;6.30;99.90;;;;;;5071710;28;20455;-74
2021/12/07 07:26:15;;;;;;;15.05;1.65;;;6.30;99.90;;;;;;5070942;28;20028;-73
2021/12/07 07:28:40;;;;;;;14.90;2.17;;;6.30;99.90;;;;;;5086383;28;20372;-74
2021/12/07 07:31:12;;;;;;;21.42;2.28;;;6.40;99.90;;;;;;5071790;28;20107;-76
2021/12/07 07:33:38;;;;;;;10.17;2.10;;;6.40;99.90;;;;;;5072115;28;20025;-77
2021/12/07 07:36:05;;;;;;;13.75;2.38;;;6.50;99.90;;;;;;5071067;28;20036;-76
2021/12/07 07:38:32;;;;;;;12.57;1.73;;;6.50;99.90;;;;;;5071845;28;20063;-79
2021/12/07 07:40:58;;;;;;;9.27;1.60;;;6.50;99.90;;;;;;5071016;28;20471;-80
2021/12/07 07:43:24;;;;;;;13.43;2.30;;;6.60;99.90;;;;;;5071702;28;20116;-78
2021/12/07 07:45:52;;;;;;;15.23;2.30;;;6.60;99.90;;;;;;5072054;28;20036;-79
2021/12/07 07:48:20;;;;;;;11.30;1.73;;;6.60;99.90;;;;;;5071206;28;20024;-80
2021/12/07 07:50:46;;;;;;;11.23;1.95;;;6.60;99.90;;;;;;5070644;28;20472;-78
2021/12/07 07:53:12;;;;;;;13.68;1.85;;;6.70;99.90;;;;;;5071225;28;20021;-79
2021/12/07 07:55:40;;;;;;;9.52;1.98;;;6.70;99.90;;;;;;5075952;28;20055;-79
2021/12/07 07:58:06;;;;;;;8.70;1.55;;;6.80;99.90;;;;;;5073840;28;20025;-76
2021/12/07 08:00:32;;;;;;;8.27;2.15;;;6.90;99.90;;;;;;5075745;28;20099;-76
2021/12/07 08:02:58;;;;;;;5.70;1.52;;;7.00;99.90;;;;;;5074829;28;20099;-82
2021/12/07 08:05:24;;;;;;;8.10;1.48;;;7.00;99.90;;;;;;5074776;28;20552;-78
2021/12/07 08:07:51;;;;;;;6.22;1.30;;;7.20;99.90;;;;;;5075946;28;20027;-76
2021/12/07 08:10:18;;;;;;;8.13;1.27;;;7.30;99.90;;;;;;5075078;28;20107;-78
2021/12/07 08:12:44;;;;;;;8.38;1.63;;;7.40;99.90;;;;;;5074393;28;20387;-79
2021/12/07 08:15:10;;;;;;;10.27;2.25;;;7.50;99.90;;;;;;5074731;28;20032;-77
2021/12/07 08:17:36;;;;;;;8.10;1.42;;;7.40;99.90;;;;;;5075577;28;20032;-76
2021/12/07 08:20:03;;;;;;;6.82;1.33;;;7.40;99.90;;;;;;5074716;28;20104;-78
2021/12/07 08:22:30;;;;;;;5.30;1.23;;;7.40;99.90;;;;;;5073904;28;20042;-77
2021/12/07 08:24:56;;;;;;;9.32;1.73;;;7.40;99.90;;;;;;5075060;28;20055;-80
2021/12/07 08:27:22;;;;;;;9.73;1.42;;;7.40;99.90;;;;;;5073482;28;20028;-78
2021/12/07 08:29:48;;;;;;;8.38;1.65;;;7.40;99.90;;;;;;5074952;28;20016;-75
2021/12/07 08:32:14;;;;;;;8.30;1.33;;;7.40;99.90;;;;;;5074500;28;20368;-77
2021/12/07 08:34:40;;;;;;;6.85;1.20;;;7.40;99.90;;;;;;5074894;28;20099;-77
2021/12/07 08:37:05;;;;;;;4.10;1.27;;;7.40;99.90;;;;;;5074414;28;20028;-77
2021/12/07 08:39:34;;;;;;;7.47;1.23;;;7.50;99.90;;;;;;5073634;28;20028;-77
2021/12/07 08:42:02;;;;;;;4.15;1.15;;;7.50;99.90;;;;;;5074266;28;20441;-81
2021/12/07 08:44:28;;;;;;;3.55;0.82;;;7.50;99.90;;;;;;5074893;28;20123;-77
2021/12/07 08:46:54;;;;;;;5.43;0.65;;;7.60;99.90;;;;;;5084892;28;20029;-77
2021/12/07 08:49:21;;;;;;;3.13;0.90;;;7.80;99.90;;;;;;5074163;28;20035;-76
2021/12/07 08:51:48;;;;;;;3.78;1.00;;;7.80;99.90;;;;;;5074743;28;20107;-75
2021/12/07 08:59:46;;;;;;;3.75;1.10;;;8.20;99.90;;;;;;5073369;28;20043;-74
2021/12/07 09:02:14;;;;;;;8.30;1.00;;;8.20;99.90;;;;;;5073879;28;20037;-73
2021/12/07 09:04:40;;;;;;;5.95;1.38;;;8.20;99.90;;;;;;5068406;28;20028;-75
2021/12/07 09:07:06;;;;;;;9.10;1.75;;;8.40;99.90;;;;;;5070763;28;20031;-75
2021/12/07 09:09:33;;;;;;;9.05;1.90;;;8.40;99.90;;;;;;5071849;28;20425;-76
2021/12/07 09:11:59;;;;;;;7.82;1.15;;;8.40;99.90;;;;;;5073554;28;20033;-78
2021/12/07 09:14:27;;;;;;;7.05;1.70;;;8.40;99.90;;;;;;5072716;28;20035;-75
2021/12/07 09:16:53;;;;;;;5.32;1.70;;;8.50;99.90;;;;;;5075935;28;20059;-77
2021/12/07 09:19:20;;;;;;;12.18;1.70;;;8.50;99.90;;;;;;5072693;28;20106;-77
2021/12/07 09:21:45;;;;;;;6.68;1.50;;;8.50;99.90;;;;;;5074233;28;20028;-76
2021/12/07 09:24:11;;;;;;;4.95;1.00;;;8.60;99.90;;;;;;5073662;28;20039;-76
2021/12/07 09:26:38;;;;;;;8.45;1.10;;;8.60;99.90;;;;;;5073575;28;20051;-76
2021/12/07 09:29:05;;;;;;;5.05;1.17;;;8.70;99.90;;;;;;5073215;28;20029;-78
2021/12/07 09:31:31;;;;;;;11.13;1.52;;;8.80;99.90;;;;;;5071982;28;20477;-73
2021/12/07 09:33:57;;;;;;;15.05;2.05;;;8.90;99.90;;;;;;5073595;28;20118;-73
2021/12/07 09:36:25;;;;;;;12.68;1.65;;;8.80;99.90;;;;;;5073107;28;20078;-74
2021/12/07 09:38:51;;;;;;;13.20;2.20;;;8.50;99.90;;;;;;5073427;28;20025;-73
2021/12/07 09:41:18;;;;;;;19.38;3.20;;;8.30;99.90;;;;;;5072681;28;20514;-72
2021/12/07 09:43:45;;;;;;;22.17;3.08;;;8.30;99.90;;;;;;5072191;28;20044;-72
2021/12/07 09:46:12;;;;;;;17.42;2.90;;;8.20;99.90;;;;;;5073150;28;20028;-71
2021/12/07 09:48:39;;;;;;;22.90;3.70;;;8.20;99.90;;;;;;5073403;28;20024;-71
2021/12/07 09:51:07;;;;;;;28.55;4.35;;;8.20;99.90;;;;;;5072378;28;20043;-72
2021/12/07 09:53:33;;;;;;;24.83;5.53;;;8.10;99.90;;;;;;5073113;28;20033;-71
2021/12/07 09:56:00;;;;;;;26.98;4.45;;;8.10;99.90;;;;;;5079799;28;20048;-72
2021/12/07 09:58:26;;;;;;;19.55;4.18;;;8.10;99.90;;;;;;5072890;28;20032;-71
2021/12/07 10:00:52;;;;;;;22.30;3.88;;;8.00;99.90;;;;;;5072964;28;20028;-72
2021/12/07 10:03:20;;;;;;;47.83;5.35;;;8.00;99.90;;;;;;5071072;28;20082;-72
2021/12/07 10:05:46;;;;;;;24.85;5.63;;;8.00;99.90;;;;;;5074816;28;20038;-72
2021/12/07 10:08:12;;;;;;;28.58;4.25;;;8.10;99.90;;;;;;5079610;28;20050;-72
2021/12/07 10:10:44;;;;;;;32.63;5.15;;;8.00;99.90;;;;;;5091041;28;20024;-72
2021/12/07 10:13:12;;;;;;;20.88;4.75;;;8.10;99.90;;;;;;5086131;28;20066;-72
2021/12/07 10:15:39;;;;;;;27.52;3.85;;;8.10;99.90;;;;;;5092875;28;20024;-72
2021/12/07 10:18:12;;;;;;;19.92;4.50;;;8.20;99.90;;;;;;5090498;28;20077;-73
2021/12/07 10:20:51;;;;;;;24.15;4.03;;;8.10;99.90;;;;;;5092827;28;20028;-72
2021/12/07 10:23:20;;;;;;;21.10;3.95;;;8.10;99.90;;;;;;5092213;28;20378;-72
2021/12/07 10:26:02;;;;;;;15.43;3.03;;;8.10;99.90;;;;;;5092760;28;20040;-73
2021/12/07 10:28:41;;;;;;;20.73;3.50;;;8.20;99.90;;;;;;5092759;28;20032;-72
2021/12/07 10:31:07;;;;;;;15.77;3.03;;;8.20;99.90;;;;;;5092020;28;20248;-72
2021/12/07 10:33:43;;;;;;;16.10;3.25;;;8.30;99.90;;;;;;5085546;28;20027;-72
2021/12/07 10:36:17;;;;;;;20.80;3.25;;;8.10;99.90;;;;;;5063388;28;20036;-72
2021/12/07 10:38:58;;;;;;;10.30;2.80;;;8.10;99.90;;;;;;5055981;28;20029;-72
2021/12/07 10:41:26;;;;;;;15.52;2.63;;;8.10;99.90;;;;;;5071562;28;20106;-72
2021/12/07 10:44:18;;;;;;;13.32;2.63;;;8.00;99.90;;;;;;5072546;28;20024;-72
2021/12/07 10:46:58;;;;;;;12.90;2.60;;;7.90;99.90;;;;;;5072161;28;20037;-74
2021/12/07 10:49:50;;;;;;;9.90;2.33;;;7.80;99.90;;;;;;5071119;28;20032;-73
2021/12/07 10:52:33;;;;;;;13.90;2.63;;;7.70;99.90;;;;;;5070377;28;20039;-73
2021/12/07 10:55:20;;;;;;;11.07;2.20;;;7.60;99.90;;;;;;5072844;28;20051;-74
2021/12/07 10:57:54;;;;;;;15.07;2.85;;;7.60;99.90;;;;;;5072130;28;20056;-73
2021/12/07 11:00:26;;;;;;;18.75;3.72;;;7.60;99.90;;;;;;5071311;28;20487;-73
2021/12/07 11:02:56;;;;;;;19.20;3.35;;;7.70;99.90;;;;;;5072012;28;20021;-73
2021/12/07 11:05:37;;;;;;;18.63;3.60;;;7.70;99.90;;;;;;5071240;28;20040;-73
2021/12/07 11:08:06;;;;;;;14.68;2.90;;;7.80;99.90;;;;;;5071714;28;20032;-76
2021/12/07 11:10:38;;;;;;;15.88;3.10;;;7.80;99.90;;;;;;5071770;28;20573;-74
2021/12/07 11:13:18;;;;;;;11.38;2.10;;;7.80;99.90;;;;;;5071570;28;20091;-73
2021/12/07 11:15:53;;;;;;;13.57;2.30;;;7.80;99.90;;;;;;5071940;28;20166;-72
2021/12/07 11:18:29;;;;;;;8.50;2.28;;;7.70;99.90;;;;;;5070975;28;20032;-72
2021/12/07 11:21:00;;;;;;;15.98;3.10;;;7.70;99.90;;;;;;5071811;28;20134;-72
2021/12/07 11:23:33;;;;;;;17.60;2.83;;;7.70;99.90;;;;;;5070905;28;20029;-72
2021/12/07 11:31:24;;;;;;;12.88;3.10;;;7.60;99.90;;;;;;5070656;28;20128;-72
2021/12/07 11:33:53;;;;;;;16.00;2.42;;;7.50;99.90;;;;;;5071661;28;20031;-72
2021/12/07 11:36:30;;;;;;;14.80;3.00;;;7.50;99.90;;;;;;5070683;28;20032;-72
2021/12/07 11:38:58;;;;;;;13.80;3.00;;;7.50;99.90;;;;;;5077051;28;20198;-73
2021/12/07 11:41:32;;;;;;;10.85;3.50;;;7.50;99.90;;;;;;5090709;28;20099;-73
2021/12/07 11:44:05;;;;;;;15.10;3.95;;;7.50;99.90;;;;;;5091331;28;20382;-73
2021/12/07 11:46:33;;;;;;;13.95;2.30;;;7.60;99.90;;;;;;5090476;28;20161;-73
2021/12/07 11:49:24;;;;;;;18.58;3.67;;;7.60;99.90;;;;;;5091211;28;20043;-72
2021/12/07 11:51:53;;;;;;;17.65;3.00;;;7.60;99.90;;;;;;5084023;28;20054;-73
2021/12/07 11:54:23;;;;;;;15.30;3.05;;;7.70;99.90;;;;;;5073664;28;20573;-73
2021/12/07 11:56:49;;;;;;;21.20;4.07;;;7.70;99.90;;;;;;5070996;28;20162;-74
2021/12/07 11:59:16;;;;;;;20.08;3.92;;;7.70;99.90;;;;;;5070231;28;20534;-74
2021/12/07 12:01:44;;;;;;;18.00;3.67;;;7.70;99.90;;;;;;5071430;28;20166;-72
2021/12/07 12:04:10;;;;;;;13.77;3.10;;;7.70;99.90;;;;;;5073377;28;20402;-73
2021/12/07 12:06:36;;;;;;;18.77;3.75;;;7.70;99.90;;;;;;5077687;28;20036;-73
2021/12/07 12:09:03;;;;;;;13.73;2.80;;;7.80;99.90;;;;;;5069974;28;20035;-73
2021/12/07 12:11:56;;;;;;;13.20;3.13;;;7.90;99.90;;;;;;5070364;28;20135;-73
2021/12/07 12:14:33;;;;;;;15.23;3.10;;;8.00;99.90;;;;;;5070529;28;20029;-73
2021/12/07 12:17:08;;;;;;;11.80;2.80;;;8.00;99.90;;;;;;5070954;28;20182;-73
2021/12/07 12:20:01;;;;;;;11.68;2.67;;;8.10;99.90;;;;;;5070929;28;20032;-73
2021/12/07 12:22:46;;;;;;;13.52;2.58;;;8.10;99.90;;;;;;5070388;28;20044;-73
2021/12/07 12:25:15;;;;;;;15.05;3.30;;;8.10;99.90;;;;;;5069904;28;20033;-73
2021/12/07 12:27:42;;;;;;;11.15;2.58;;;8.00;99.90;;;;;;5069881;28;20090;-73
2021/12/07 12:30:42;;;;;;;9.23;2.40;;;8.00;99.90;;;;;;5070839;28;20115;-74
2021/12/07 12:33:11;;;;;;;11.30;2.33;;;7.90;99.90;;;;;;5070234;28;20532;-74
2021/12/07 12:35:43;;;;;;;10.95;2.38;;;7.90;99.90;;;;;;5071170;28;20055;-72
2021/12/07 12:38:17;;;;;;;7.70;1.63;;;7.90;99.90;;;;;;5070165;28;20028;-74
2021/12/07 12:40:42;;;;;;;13.63;2.47;;;7.90;99.90;;;;;;5071749;28;20031;-72
2021/12/07 12:43:08;;;;;;;9.57;2.63;;;7.90;99.90;;;;;;5073948;28;20024;-74
2021/12/07 12:45:38;;;;;;;10.90;3.17;;;7.80;99.90;;;;;;5074578;28;20048;-72
2021/12/07 12:48:10;;;;;;;16.52;3.03;;;7.80;99.90;;;;;;5074529;28;20028;-72
2021/12/07 12:50:49;;;;;;;12.30;2.30;;;7.80;99.90;;;;;;5073127;28;20379;-72
2021/12/07 12:53:24;;;;;;;10.77;2.80;;;7.80;99.90;;;;;;5073934;28;20092;-73
2021/12/07 12:56:19;;;;;;;14.63;2.53;;;7.90;99.90;;;;;;5074248;28;20068;-73
2021/12/07 12:58:49;;;;;;;9.52;3.20;;;7.90;99.90;;;;;;5074339;28;20044;-73
2021/12/07 13:01:22;;;;;;;13.02;2.90;;;7.90;99.90;;;;;;5073521;28;20040;-72
2021/12/07 13:03:57;;;;;;;16.85;3.60;;;7.90;99.90;;;;;;5070167;28;20028;-73
2021/12/07 13:06:54;;;;;;;14.13;2.85;;;8.00;99.90;;;;;;5060332;28;20059;-73
2021/12/07 13:09:23;;;;;;;11.88;3.22;;;8.00;99.90;;;;;;5071267;28;20131;-74
2021/12/07 13:11:54;;;;;;;10.93;3.10;;;8.00;99.90;;;;;;5075385;28;20512;-73
2021/12/07 13:14:19;;;;;;;19.25;3.40;;;8.00;99.90;;;;;;5073244;28;20483;-73
2021/12/07 13:16:59;;;;;;;12.77;3.17;;;8.00;99.90;;;;;;5073767;28;20068;-73
2021/12/07 13:19:27;;;;;;;18.88;2.85;;;8.10;99.90;;;;;;5072018;28;20043;-73
2021/12/07 13:21:53;;;;;;;16.10;3.08;;;8.10;99.90;;;;;;5072578;28;20067;-73
2021/12/07 13:24:36;;;;;;;13.75;3.33;;;8.10;99.90;;;;;;5071946;28;20052;-73
2021/12/07 13:27:10;;;;;;;;;;;8.10;99.90;;;;;;5074063;28;20039;-73
2021/12/07 13:29:37;;;;;;;13.98;3.25;;;8.10;99.90;;;;;;5072622;28;19915;-73
2021/12/07 13:32:06;;;;;;;13.82;3.30;;;8.10;99.90;;;;;;5073636;28;20028;-73
2021/12/07 13:34:36;;;;;;;15.60;3.33;;;8.10;99.90;;;;;;5072627;28;20455;-73
2021/12/07 13:37:09;;;;;;;16.60;3.17;;;8.10;99.90;;;;;;5072256;28;20102;-73
2021/12/07 13:39:44;;;;;;;;;;;8.10;99.90;;;;;;5072508;28;20031;-73
2021/12/07 13:42:18;;;;;;;7.88;2.45;;;8.00;99.90;;;;;;5073274;28;19904;-75
2021/12/07 13:45:09;;;;;;;15.63;2.00;;;8.00;99.90;;;;;;5073622;28;20025;-72
2021/12/07 13:47:40;;;;;;;15.77;2.92;;;8.00;99.90;;;;;;5073454;28;20025;-72
2021/12/07 13:50:29;;;;;;;11.30;3.27;;;8.00;99.90;;;;;;5072328;28;20033;-72
2021/12/07 13:52:56;;;;;;;8.60;2.70;;;7.90;99.90;;;;;;5073079;28;20260;-72
2021/12/07 13:55:28;;;;;;;16.63;3.30;;;7.90;99.90;;;;;;5072587;28;20041;-72
2021/12/07 13:57:57;;;;;;;11.38;2.17;;;7.80;99.90;;;;;;5072734;28;20070;-75
2021/12/07 14:00:30;;;;;;;14.15;4.35;;;7.70;99.90;;;;;;5072324;28;20382;-73
2021/12/07 14:03:02;;;;;;;15.32;5.40;;;7.60;99.90;;;;;;5072802;28;20094;-73
2021/12/07 14:05:34;;;;;;;16.25;6.18;;;7.50;99.90;;;;;;5072224;28;20032;-73
2021/12/07 14:08:03;;;;;;;11.95;5.45;;;7.40;99.90;;;;;;5071970;28;20028;-72
2021/12/07 14:10:32;;;;;;;13.43;3.65;;;7.30;99.90;;;;;;5070707;28;20186;-72
2021/12/07 14:13:00;;;;;;;8.70;2.15;;;7.20;99.90;;;;;;5072811;28;20040;-73
2021/12/07 14:15:33;;;;;;;10.80;2.25;;;7.20;99.90;;;;;;5070207;28;20544;-73
2021/12/07 14:18:10;;;;;;;9.85;2.30;;;7.10;99.90;;;;;;5086141;28;20028;-74
2021/12/07 14:20:48;;;;;;;3.70;1.33;;;7.00;99.90;;;;;;5092512;28;20039;-72
2021/12/07 14:23:26;;;;;;;5.55;1.55;;;6.90;99.90;;;;;;5092517;28;20042;-73
2021/12/07 14:26:06;;;;;;;4.70;1.55;;;6.80;99.90;;;;;;5068011;28;20084;-72
2021/12/07 14:28:48;;;;;;;5.13;1.17;;;6.70;99.90;;;;;;5070384;28;20035;-72
2021/12/07 14:31:17;;;;;;;4.18;1.13;;;6.70;99.90;;;;;;5071389;28;20025;-73
2021/12/07 14:33:55;;;;;;;5.75;1.50;;;6.70;99.90;;;;;;5070817;28;20024;-73
2021/12/07 14:36:22;;;;;;;8.00;1.92;;;6.80;99.90;;;;;;5072095;28;20024;-73
2021/12/07 14:38:50;;;;;;;4.80;1.45;;;6.80;99.90;;;;;;5071643;28;20035;-74
2021/12/07 14:41:18;;;;;;;3.60;0.93;;;6.80;99.90;;;;;;5071160;28;20025;-74
2021/12/07 14:43:44;;;;;;;3.58;1.17;;;6.80;99.90;;;;;;5070432;28;20467;-73
2021/12/07 14:46:13;;;;;;;4.68;1.45;;;6.80;99.90;;;;;;5071717;28;20111;-73
2021/12/07 14:48:40;;;;;;;5.90;1.42;;;6.90;99.90;;;;;;5069856;28;20121;-73
2021/12/07 14:51:10;;;;;;;5.95;1.05;;;6.90;99.90;;;;;;5071822;28;20028;-75
2021/12/07 14:53:40;;;;;;;2.42;1.27;;;6.90;99.90;;;;;;5070493;28;20032;-73